sensor_id;sensor_type;location;lat;lon;timestamp;pressure;altitude;pressure_sealevel;temperature;humidity
79372;BME280;68914;51.262;6.802;2023-07-29T00:00:41;100517.22;;;22.24;nan
79372;BME280;68914;51.262;6.802;2023-07-29T00:01:41;100513.66;;;22.34;nan
79372;BME280;68914;51.262;6.802;2023-07-29T00:02:42;100515.75;;;22.37;nan
79372;BME280;68914;51.262;6.802;2023-07-29T00:03:42;100517.31;;;22.43;nan
79372;BME280;68914;51.262;6.802;2023-07-29T00:04:43;100516.88;;;22.60;nan
79372;BME280;68914;51.262;6.802;2023-07-29T00:05:44;100511.34;;;22.51;nan
79372;BME280;68914;51.262;6.802;2023-07-29T00:06:44;100512.91;;;22.28;nan
79372;BME280;68914;51.262;6.802;2023-07-29T00:07:45;100515.69;;;22.47;nan
79372;BME280;68914;51.262;6.802;2023-07-29T00:08:46;100508.66;;;22.51;nan
79372;BME280;68914;51.262;6.802;2023-07-29T00:09:46;100515.25;;;22.35;nan
79372;BME280;68914;51.262;6.802;2023-07-29T00:10:47;100504.69;;;22.44;nan
79372;BME280;68914;51.262;6.802;2023-07-29T00:11:47;100505.44;;;22.20;nan
79372;BME280;68914;51.262;6.802;2023-07-29T00:12:48;100502.72;;;22.54;nan
79372;BME280;68914;51.262;6.802;2023-07-29T00:13:49;100502.06;;;22.39;nan
79372;BME280;68914;51.262;6.802;2023-07-29T00:14:51;100500.81;;;22.55;nan
79372;BME280;68914;51.262;6.802;2023-07-29T00:15:54;100496.06;;;22.47;nan
79372;BME280;68914;51.262;6.802;2023-07-29T00:16:56;100502.41;;;22.56;nan
79372;BME280;68914;51.262;6.802;2023-07-29T00:17:56;100495.97;;;22.28;nan
79372;BME280;68914;51.262;6.802;2023-07-29T00:18:57;100485.97;;;22.63;nan
79372;BME280;68914;51.262;6.802;2023-07-29T00:19:57;100489.63;;;22.72;nan
79372;BME280;68914;51.262;6.802;2023-07-29T00:20:58;100489.72;;;22.86;nan
79372;BME280;68914;51.262;6.802;2023-07-29T00:21:59;100490.31;;;22.82;nan
79372;BME280;68914;51.262;6.802;2023-07-29T00:22:59;100492.38;;;22.91;nan
79372;BME280;68914;51.262;6.802;2023-07-29T00:24:01;100491.44;;;23.00;nan
79372;BME280;68914;51.262;6.802;2023-07-29T00:25:02;100495.34;;;22.89;nan
79372;BME280;68914;51.262;6.802;2023-07-29T00:26:03;100488.25;;;22.74;nan
79372;BME280;68914;51.262;6.802;2023-07-29T00:27:04;100484.16;;;22.53;nan
79372;BME280;68914;51.262;6.802;2023-07-29T00:28:04;100488.25;;;22.50;nan
79372;BME280;68914;51.262;6.802;2023-07-29T00:29:05;100483.19;;;22.44;nan
79372;BME280;68914;51.262;6.802;2023-07-29T00:30:06;100486.59;;;22.54;nan
79372;BME280;68914;51.262;6.802;2023-07-29T00:31:07;100488.13;;;22.61;nan
79372;BME280;68914;51.262;6.802;2023-07-29T00:32:08;100482.81;;;22.79;nan
79372;BME280;68914;51.262;6.802;2023-07-29T00:33:09;100485.03;;;22.48;nan
79372;BME280;68914;51.262;6.802;2023-07-29T00:34:09;100489.28;;;22.54;nan
79372;BME280;68914;51.262;6.802;2023-07-29T00:35:10;100485.91;;;22.68;nan
79372;BME280;68914;51.262;6.802;2023-07-29T00:36:11;100485.88;;;22.44;nan
79372;BME280;68914;51.262;6.802;2023-07-29T00:37:12;100491.94;;;22.30;nan
79372;BME280;68914;51.262;6.802;2023-07-29T00:38:13;100489.03;;;22.51;nan
79372;BME280;68914;51.262;6.802;2023-07-29T00:39:13;100486.66;;;22.49;nan
79372;BME280;68914;51.262;6.802;2023-07-29T00:40:19;100485.25;;;22.28;nan
79372;BME280;68914;51.262;6.802;2023-07-29T00:41:22;100484.84;;;22.10;nan
79372;BME280;68914;51.262;6.802;2023-07-29T00:42:23;100479.53;;;22.05;nan
79372;BME280;68914;51.262;6.802;2023-07-29T00:43:23;100484.63;;;22.36;nan
79372;BME280;68914;51.262;6.802;2023-07-29T00:44:24;100476.56;;;22.36;nan
79372;BME280;68914;51.262;6.802;2023-07-29T00:45:25;100475.41;;;22.18;nan
79372;BME280;68914;51.262;6.802;2023-07-29T00:46:28;100475.06;;;22.25;nan
79372;BME280;68914;51.262;6.802;2023-07-29T00:47:29;100477.06;;;22.09;nan
79372;BME280;68914;51.262;6.802;2023-07-29T00:48:30;100479.63;;;22.24;nan
79372;BME280;68914;51.262;6.802;2023-07-29T00:49:31;100481.03;;;22.17;nan
79372;BME280;68914;51.262;6.802;2023-07-29T00:50:32;100478.78;;;22.29;nan
79372;BME280;68914;51.262;6.802;2023-07-29T00:51:34;100478.34;;;22.22;nan
79372;BME280;68914;51.262;6.802;2023-07-29T00:52:35;100472.09;;;22.26;nan
79372;BME280;68914;51.262;6.802;2023-07-29T00:53:35;100482.84;;;22.26;nan
79372;BME280;68914;51.262;6.802;2023-07-29T00:54:40;100477.66;;;22.35;nan
79372;BME280;68914;51.262;6.802;2023-07-29T00:55:41;100487.13;;;22.27;nan
79372;BME280;68914;51.262;6.802;2023-07-29T00:56:42;100472.66;;;21.89;nan
79372;BME280;68914;51.262;6.802;2023-07-29T00:57:43;100480.69;;;21.94;nan
79372;BME280;68914;51.262;6.802;2023-07-29T00:58:48;100481.50;;;21.95;nan
79372;BME280;68914;51.262;6.802;2023-07-29T00:59:49;100477.09;;;22.04;nan
79372;BME280;68914;51.262;6.802;2023-07-29T01:00:50;100477.41;;;22.02;nan
79372;BME280;68914;51.262;6.802;2023-07-29T01:01:51;100473.69;;;21.93;nan
79372;BME280;68914;51.262;6.802;2023-07-29T01:02:52;100475.16;;;22.15;nan
79372;BME280;68914;51.262;6.802;2023-07-29T01:03:55;100470.03;;;22.18;nan
79372;BME280;68914;51.262;6.802;2023-07-29T01:04:58;100478.59;;;22.20;nan
79372;BME280;68914;51.262;6.802;2023-07-29T01:06:08;100470.53;;;22.20;nan
79372;BME280;68914;51.262;6.802;2023-07-29T01:08:45;100468.66;;;22.21;nan
79372;BME280;68914;51.262;6.802;2023-07-29T01:12:08;100463.94;;;21.73;nan
79372;BME280;68914;51.262;6.802;2023-07-29T01:14:04;100463.78;;;21.59;nan
79372;BME280;68914;51.262;6.802;2023-07-29T01:16:01;100467.59;;;21.88;nan
79372;BME280;68914;51.262;6.802;2023-07-29T01:17:07;100470.56;;;21.81;nan
79372;BME280;68914;51.262;6.802;2023-07-29T01:18:14;100462.19;;;21.58;nan
79372;BME280;68914;51.262;6.802;2023-07-29T01:20:27;100459.31;;;22.13;nan
79372;BME280;68914;51.262;6.802;2023-07-29T01:21:29;100454.88;;;21.98;nan
79372;BME280;68914;51.262;6.802;2023-07-29T01:22:35;100459.25;;;21.89;nan
79372;BME280;68914;51.262;6.802;2023-07-29T01:23:37;100455.50;;;21.90;nan
79372;BME280;68914;51.262;6.802;2023-07-29T01:24:38;100455.00;;;21.83;nan
79372;BME280;68914;51.262;6.802;2023-07-29T01:25:39;100451.97;;;21.95;nan
79372;BME280;68914;51.262;6.802;2023-07-29T01:26:40;100446.63;;;21.90;nan
79372;BME280;68914;51.262;6.802;2023-07-29T01:27:47;100448.81;;;22.17;nan
79372;BME280;68914;51.262;6.802;2023-07-29T01:28:47;100451.41;;;22.27;nan
79372;BME280;68914;51.262;6.802;2023-07-29T01:29:48;100450.56;;;22.31;nan
79372;BME280;68914;51.262;6.802;2023-07-29T01:30:51;100447.63;;;21.99;nan
79372;BME280;68914;51.262;6.802;2023-07-29T01:31:57;100453.31;;;22.26;nan
79372;BME280;68914;51.262;6.802;2023-07-29T01:33:17;100456.03;;;22.21;nan
79372;BME280;68914;51.262;6.802;2023-07-29T01:34:34;100464.31;;;22.25;nan
79372;BME280;68914;51.262;6.802;2023-07-29T01:35:42;100455.28;;;22.16;nan
79372;BME280;68914;51.262;6.802;2023-07-29T01:36:44;100464.22;;;22.35;nan
79372;BME280;68914;51.262;6.802;2023-07-29T01:37:49;100470.63;;;22.39;nan
79372;BME280;68914;51.262;6.802;2023-07-29T01:38:52;100457.94;;;22.45;nan
79372;BME280;68914;51.262;6.802;2023-07-29T01:39:57;100457.41;;;22.19;nan
79372;BME280;68914;51.262;6.802;2023-07-29T01:41:00;100459.56;;;22.17;nan
79372;BME280;68914;51.262;6.802;2023-07-29T01:42:02;100456.47;;;22.33;nan
79372;BME280;68914;51.262;6.802;2023-07-29T01:43:03;100459.88;;;22.39;nan
79372;BME280;68914;51.262;6.802;2023-07-29T01:44:05;100462.56;;;22.39;nan
79372;BME280;68914;51.262;6.802;2023-07-29T01:45:06;100451.28;;;22.37;nan
79372;BME280;68914;51.262;6.802;2023-07-29T01:46:07;100453.81;;;22.52;nan
79372;BME280;68914;51.262;6.802;2023-07-29T01:47:08;100452.88;;;21.80;nan
79372;BME280;68914;51.262;6.802;2023-07-29T01:48:09;100455.44;;;22.29;nan
79372;BME280;68914;51.262;6.802;2023-07-29T01:49:09;100462.34;;;22.01;nan
79372;BME280;68914;51.262;6.802;2023-07-29T01:50:10;100451.19;;;22.23;nan
79372;BME280;68914;51.262;6.802;2023-07-29T01:51:12;100457.25;;;22.34;nan
79372;BME280;68914;51.262;6.802;2023-07-29T01:52:12;100451.41;;;22.27;nan
79372;BME280;68914;51.262;6.802;2023-07-29T01:53:13;100445.50;;;22.25;nan
79372;BME280;68914;51.262;6.802;2023-07-29T01:54:14;100450.97;;;22.44;nan
79372;BME280;68914;51.262;6.802;2023-07-29T01:55:14;100446.63;;;22.48;nan
79372;BME280;68914;51.262;6.802;2023-07-29T01:56:15;100445.25;;;22.50;nan
79372;BME280;68914;51.262;6.802;2023-07-29T01:57:24;100448.41;;;22.57;nan
79372;BME280;68914;51.262;6.802;2023-07-29T01:58:25;100439.13;;;22.45;nan
79372;BME280;68914;51.262;6.802;2023-07-29T01:59:26;100437.53;;;22.44;nan
79372;BME280;68914;51.262;6.802;2023-07-29T02:00:26;100438.31;;;22.44;nan
79372;BME280;68914;51.262;6.802;2023-07-29T02:01:27;100440.34;;;22.33;nan
79372;BME280;68914;51.262;6.802;2023-07-29T02:02:28;100438.06;;;22.46;nan
79372;BME280;68914;51.262;6.802;2023-07-29T02:03:28;100433.53;;;22.12;nan
79372;BME280;68914;51.262;6.802;2023-07-29T02:04:29;100433.72;;;21.92;nan
79372;BME280;68914;51.262;6.802;2023-07-29T02:05:29;100431.94;;;22.11;nan
79372;BME280;68914;51.262;6.802;2023-07-29T02:06:30;100434.81;;;22.20;nan
79372;BME280;68914;51.262;6.802;2023-07-29T02:07:31;100430.44;;;22.29;nan
79372;BME280;68914;51.262;6.802;2023-07-29T02:08:31;100427.75;;;22.29;nan
79372;BME280;68914;51.262;6.802;2023-07-29T02:09:32;100420.94;;;22.37;nan
79372;BME280;68914;51.262;6.802;2023-07-29T02:10:33;100415.34;;;22.33;nan
79372;BME280;68914;51.262;6.802;2023-07-29T02:11:34;100419.63;;;22.05;nan
79372;BME280;68914;51.262;6.802;2023-07-29T02:12:34;100417.13;;;22.19;nan
79372;BME280;68914;51.262;6.802;2023-07-29T02:13:36;100419.06;;;22.08;nan
79372;BME280;68914;51.262;6.802;2023-07-29T02:14:36;100425.47;;;21.83;nan
79372;BME280;68914;51.262;6.802;2023-07-29T02:15:37;100427.00;;;21.94;nan
79372;BME280;68914;51.262;6.802;2023-07-29T02:16:38;100423.59;;;22.13;nan
79372;BME280;68914;51.262;6.802;2023-07-29T02:17:41;100435.88;;;22.24;nan
79372;BME280;68914;51.262;6.802;2023-07-29T02:18:42;100436.81;;;22.33;nan
79372;BME280;68914;51.262;6.802;2023-07-29T02:19:43;100434.13;;;22.38;nan
79372;BME280;68914;51.262;6.802;2023-07-29T02:20:43;100434.50;;;22.26;nan
79372;BME280;68914;51.262;6.802;2023-07-29T02:21:49;100441.13;;;22.34;nan
79372;BME280;68914;51.262;6.802;2023-07-29T02:22:50;100440.91;;;22.30;nan
79372;BME280;68914;51.262;6.802;2023-07-29T02:23:50;100434.16;;;22.33;nan
79372;BME280;68914;51.262;6.802;2023-07-29T02:24:51;100439.47;;;22.38;nan
79372;BME280;68914;51.262;6.802;2023-07-29T02:25:52;100443.28;;;22.32;nan
79372;BME280;68914;51.262;6.802;2023-07-29T02:26:52;100439.88;;;22.50;nan
79372;BME280;68914;51.262;6.802;2023-07-29T02:27:53;100445.59;;;22.44;nan
79372;BME280;68914;51.262;6.802;2023-07-29T02:28:54;100448.81;;;22.17;nan
79372;BME280;68914;51.262;6.802;2023-07-29T02:29:54;100443.66;;;22.25;nan
79372;BME280;68914;51.262;6.802;2023-07-29T02:31:21;100440.44;;;22.47;nan
79372;BME280;68914;51.262;6.802;2023-07-29T02:32:22;100442.91;;;22.44;nan
79372;BME280;68914;51.262;6.802;2023-07-29T02:33:22;100441.06;;;22.39;nan
79372;BME280;68914;51.262;6.802;2023-07-29T02:34:24;100439.94;;;22.45;nan
79372;BME280;68914;51.262;6.802;2023-07-29T02:35:25;100440.91;;;22.54;nan
79372;BME280;68914;51.262;6.802;2023-07-29T02:36:26;100432.31;;;22.52;nan
79372;BME280;68914;51.262;6.802;2023-07-29T02:37:26;100434.03;;;22.43;nan
79372;BME280;68914;51.262;6.802;2023-07-29T02:38:27;100431.28;;;22.48;nan
79372;BME280;68914;51.262;6.802;2023-07-29T02:39:28;100426.38;;;22.55;nan
79372;BME280;68914;51.262;6.802;2023-07-29T02:40:28;100429.47;;;22.68;nan
79372;BME280;68914;51.262;6.802;2023-07-29T02:41:29;100427.88;;;22.43;nan
79372;BME280;68914;51.262;6.802;2023-07-29T02:42:30;100429.38;;;22.30;nan
79372;BME280;68914;51.262;6.802;2023-07-29T02:43:31;100432.00;;;22.35;nan
79372;BME280;68914;51.262;6.802;2023-07-29T02:44:31;100429.63;;;22.28;nan
79372;BME280;68914;51.262;6.802;2023-07-29T02:45:32;100428.59;;;22.24;nan
79372;BME280;68914;51.262;6.802;2023-07-29T02:46:33;100425.91;;;22.24;nan
79372;BME280;68914;51.262;6.802;2023-07-29T02:47:33;100427.31;;;22.22;nan
79372;BME280;68914;51.262;6.802;2023-07-29T02:48:34;100430.97;;;22.31;nan
79372;BME280;68914;51.262;6.802;2023-07-29T02:49:35;100432.50;;;22.37;nan
79372;BME280;68914;51.262;6.802;2023-07-29T02:50:35;100428.56;;;22.29;nan
79372;BME280;68914;51.262;6.802;2023-07-29T02:51:36;100437.13;;;22.31;nan
79372;BME280;68914;51.262;6.802;2023-07-29T02:52:36;100438.94;;;22.36;nan
79372;BME280;68914;51.262;6.802;2023-07-29T02:53:37;100436.31;;;22.31;nan
79372;BME280;68914;51.262;6.802;2023-07-29T02:54:38;100438.94;;;22.36;nan
79372;BME280;68914;51.262;6.802;2023-07-29T02:55:41;100436.44;;;22.45;nan
79372;BME280;68914;51.262;6.802;2023-07-29T02:56:42;100434.28;;;22.47;nan
79372;BME280;68914;51.262;6.802;2023-07-29T02:57:43;100440.38;;;22.52;nan
79372;BME280;68914;51.262;6.802;2023-07-29T02:58:43;100439.75;;;22.61;nan
79372;BME280;68914;51.262;6.802;2023-07-29T02:59:45;100438.63;;;22.67;nan
79372;BME280;68914;51.262;6.802;2023-07-29T03:00:45;100438.16;;;22.59;nan
79372;BME280;68914;51.262;6.802;2023-07-29T03:01:48;100431.50;;;22.57;nan
79372;BME280;68914;51.262;6.802;2023-07-29T03:02:50;100443.44;;;22.46;nan
79372;BME280;68914;51.262;6.802;2023-07-29T03:03:51;100433.13;;;22.53;nan
79372;BME280;68914;51.262;6.802;2023-07-29T03:04:51;100433.19;;;22.48;nan
79372;BME280;68914;51.262;6.802;2023-07-29T03:06:07;100437.81;;;22.42;nan
79372;BME280;68914;51.262;6.802;2023-07-29T03:07:08;100434.38;;;22.37;nan
79372;BME280;68914;51.262;6.802;2023-07-29T03:08:08;100432.56;;;22.32;nan
79372;BME280;68914;51.262;6.802;2023-07-29T03:09:09;100436.78;;;22.38;nan
79372;BME280;68914;51.262;6.802;2023-07-29T03:10:10;100439.75;;;22.37;nan
79372;BME280;68914;51.262;6.802;2023-07-29T03:11:15;100441.00;;;22.44;nan
79372;BME280;68914;51.262;6.802;2023-07-29T03:12:16;100437.25;;;22.45;nan
79372;BME280;68914;51.262;6.802;2023-07-29T03:13:16;100435.13;;;22.42;nan
79372;BME280;68914;51.262;6.802;2023-07-29T03:14:17;100440.75;;;22.46;nan
79372;BME280;68914;51.262;6.802;2023-07-29T03:15:18;100435.81;;;22.53;nan
79372;BME280;68914;51.262;6.802;2023-07-29T03:16:18;100436.78;;;22.38;nan
79372;BME280;68914;51.262;6.802;2023-07-29T03:17:27;100436.31;;;22.31;nan
79372;BME280;68914;51.262;6.802;2023-07-29T03:18:28;100432.78;;;22.36;nan
79372;BME280;68914;51.262;6.802;2023-07-29T03:19:28;100435.13;;;22.42;nan
79372;BME280;68914;51.262;6.802;2023-07-29T03:20:29;100439.88;;;22.50;nan
79372;BME280;68914;51.262;6.802;2023-07-29T03:21:29;100436.22;;;22.41;nan
79372;BME280;68914;51.262;6.802;2023-07-29T03:22:30;100429.41;;;22.49;nan
79372;BME280;68914;51.262;6.802;2023-07-29T03:23:33;100433.81;;;22.64;nan
79372;BME280;68914;51.262;6.802;2023-07-29T03:24:34;100424.88;;;22.68;nan
79372;BME280;68914;51.262;6.802;2023-07-29T03:25:35;100429.41;;;22.49;nan
79372;BME280;68914;51.262;6.802;2023-07-29T03:26:35;100419.66;;;22.34;nan
79372;BME280;68914;51.262;6.802;2023-07-29T03:27:36;100421.81;;;22.32;nan
79372;BME280;68914;51.262;6.802;2023-07-29T03:28:41;100429.59;;;22.33;nan
79372;BME280;68914;51.262;6.802;2023-07-29T03:29:42;100424.44;;;22.37;nan
79372;BME280;68914;51.262;6.802;2023-07-29T03:30:43;100430.03;;;22.17;nan
79372;BME280;68914;51.262;6.802;2023-07-29T03:31:44;100432.47;;;22.42;nan
79372;BME280;68914;51.262;6.802;2023-07-29T03:32:44;100429.13;;;22.50;nan
79372;BME280;68914;51.262;6.802;2023-07-29T03:33:48;100429.25;;;22.40;nan
79372;BME280;68914;51.262;6.802;2023-07-29T03:34:48;100422.66;;;22.51;nan
79372;BME280;68914;51.262;6.802;2023-07-29T03:35:49;100416.50;;;22.51;nan
79372;BME280;68914;51.262;6.802;2023-07-29T03:36:50;100417.47;;;22.36;nan
79372;BME280;68914;51.262;6.802;2023-07-29T03:37:52;100415.97;;;22.25;nan
79372;BME280;68914;51.262;6.802;2023-07-29T03:38:52;100416.97;;;22.34;nan
79372;BME280;68914;51.262;6.802;2023-07-29T03:39:53;100424.41;;;22.42;nan
79372;BME280;68914;51.262;6.802;2023-07-29T03:40:54;100417.53;;;22.55;nan
79372;BME280;68914;51.262;6.802;2023-07-29T03:41:54;100413.97;;;22.59;nan
79372;BME280;68914;51.262;6.802;2023-07-29T03:42:55;100413.88;;;22.70;nan
79372;BME280;68914;51.262;6.802;2023-07-29T03:43:55;100405.22;;;22.73;nan
79372;BME280;68914;51.262;6.802;2023-07-29T03:44:56;100403.38;;;22.68;nan
79372;BME280;68914;51.262;6.802;2023-07-29T03:45:57;100399.84;;;22.73;nan
79372;BME280;68914;51.262;6.802;2023-07-29T03:46:57;100394.97;;;22.75;nan
79372;BME280;68914;51.262;6.802;2023-07-29T03:47:58;100397.88;;;22.78;nan
79372;BME280;68914;51.262;6.802;2023-07-29T03:48:59;100406.53;;;22.51;nan
79372;BME280;68914;51.262;6.802;2023-07-29T03:49:59;100413.41;;;22.63;nan
79372;BME280;68914;51.262;6.802;2023-07-29T03:51:00;100418.16;;;22.23;nan
79372;BME280;68914;51.262;6.802;2023-07-29T03:52:01;100422.50;;;22.43;nan
79372;BME280;68914;51.262;6.802;2023-07-29T03:53:02;100430.34;;;22.39;nan
79372;BME280;68914;51.262;6.802;2023-07-29T03:54:03;100430.34;;;22.39;nan
79372;BME280;68914;51.262;6.802;2023-07-29T03:55:04;100430.91;;;22.36;nan
79372;BME280;68914;51.262;6.802;2023-07-29T03:56:05;100432.31;;;22.28;nan
79372;BME280;68914;51.262;6.802;2023-07-29T03:57:06;100432.25;;;22.04;nan
79372;BME280;68914;51.262;6.802;2023-07-29T03:58:06;100438.59;;;22.19;nan
79372;BME280;68914;51.262;6.802;2023-07-29T03:59:07;100435.69;;;22.15;nan
79372;BME280;68914;51.262;6.802;2023-07-29T04:00:08;100436.31;;;22.02;nan
79372;BME280;68914;51.262;6.802;2023-07-29T04:01:21;100436.28;;;22.07;nan
79372;BME280;68914;51.262;6.802;2023-07-29T04:02:22;100430.34;;;22.10;nan
79372;BME280;68914;51.262;6.802;2023-07-29T04:03:22;100433.59;;;22.36;nan
79372;BME280;68914;51.262;6.802;2023-07-29T04:04:25;100430.78;;;22.22;nan
79372;BME280;68914;51.262;6.802;2023-07-29T04:05:26;100431.75;;;22.02;nan
79372;BME280;68914;51.262;6.802;2023-07-29T04:06:28;100431.66;;;22.18;nan
79372;BME280;68914;51.262;6.802;2023-07-29T04:07:30;100429.47;;;22.20;nan
79372;BME280;68914;51.262;6.802;2023-07-29T04:08:30;100421.31;;;22.30;nan
79372;BME280;68914;51.262;6.802;2023-07-29T04:09:31;100429.06;;;22.02;nan
79372;BME280;68914;51.262;6.802;2023-07-29T04:10:32;100436.09;;;21.98;nan
79372;BME280;68914;51.262;6.802;2023-07-29T04:11:33;100427.38;;;22.12;nan
79372;BME280;68914;51.262;6.802;2023-07-29T04:12:33;100423.28;;;22.19;nan
79372;BME280;68914;51.262;6.802;2023-07-29T04:13:34;100424.41;;;22.13;nan
79372;BME280;68914;51.262;6.802;2023-07-29T04:14:35;100429.38;;;21.96;nan
79372;BME280;68914;51.262;6.802;2023-07-29T04:15:35;100435.84;;;21.95;nan
79372;BME280;68914;51.262;6.802;2023-07-29T04:16:36;100440.13;;;21.96;nan
79372;BME280;68914;51.262;6.802;2023-07-29T04:17:37;100433.25;;;22.19;nan
79372;BME280;68914;51.262;6.802;2023-07-29T04:18:38;100438.03;;;22.22;nan
79372;BME280;68914;51.262;6.802;2023-07-29T04:19:39;100435.56;;;21.96;nan
79372;BME280;68914;51.262;6.802;2023-07-29T04:20:39;100436.13;;;21.93;nan
79372;BME280;68914;51.262;6.802;2023-07-29T04:21:40;100426.09;;;22.04;nan
79372;BME280;68914;51.262;6.802;2023-07-29T04:22:41;100419.50;;;22.20;nan
79372;BME280;68914;51.262;6.802;2023-07-29T04:23:41;100423.75;;;22.26;nan
79372;BME280;68914;51.262;6.802;2023-07-29T04:24:42;100428.47;;;21.76;nan
79372;BME280;68914;51.262;6.802;2023-07-29T04:25:43;100438.41;;;21.76;nan
79372;BME280;68914;51.262;6.802;2023-07-29T04:26:44;100451.53;;;21.82;nan
79372;BME280;68914;51.262;6.802;2023-07-29T04:27:45;100453.72;;;21.75;nan
79372;BME280;68914;51.262;6.802;2023-07-29T04:28:45;100458.25;;;21.80;nan
79372;BME280;68914;51.262;6.802;2023-07-29T04:29:46;100459.75;;;21.57;nan
79372;BME280;68914;51.262;6.802;2023-07-29T04:30:46;100452.50;;;21.63;nan
79372;BME280;68914;51.262;6.802;2023-07-29T04:31:47;100462.16;;;21.93;nan
79372;BME280;68914;51.262;6.802;2023-07-29T04:32:49;100465.81;;;21.73;nan
79372;BME280;68914;51.262;6.802;2023-07-29T04:33:50;100474.81;;;21.53;nan
79372;BME280;68914;51.262;6.802;2023-07-29T04:34:51;100468.22;;;21.74;nan
79372;BME280;68914;51.262;6.802;2023-07-29T04:35:52;100471.34;;;21.87;nan
79372;BME280;68914;51.262;6.802;2023-07-29T04:36:52;100478.28;;;21.58;nan
79372;BME280;68914;51.262;6.802;2023-07-29T04:37:53;100474.19;;;21.66;nan
79372;BME280;68914;51.262;6.802;2023-07-29T04:38:53;100472.22;;;21.77;nan
79372;BME280;68914;51.262;6.802;2023-07-29T04:39:54;100477.69;;;21.67;nan
79372;BME280;68914;51.262;6.802;2023-07-29T04:40:55;100470.25;;;21.88;nan
79372;BME280;68914;51.262;6.802;2023-07-29T04:41:55;100473.84;;;21.78;nan
79372;BME280;68914;51.262;6.802;2023-07-29T04:42:57;100474.31;;;21.85;nan
79372;BME280;68914;51.262;6.802;2023-07-29T04:44:00;100475.38;;;21.84;nan
79372;BME280;68914;51.262;6.802;2023-07-29T04:45:01;100478.22;;;21.64;nan
79372;BME280;68914;51.262;6.802;2023-07-29T04:46:01;100478.38;;;21.38;nan
79372;BME280;68914;51.262;6.802;2023-07-29T04:47:02;100476.31;;;21.69;nan
79372;BME280;68914;51.262;6.802;2023-07-29T04:48:03;100483.53;;;21.74;nan
79372;BME280;68914;51.262;6.802;2023-07-29T04:49:04;100479.44;;;21.81;nan
79372;BME280;68914;51.262;6.802;2023-07-29T04:50:05;100475.94;;;21.86;nan
79372;BME280;68914;51.262;6.802;2023-07-29T04:51:06;100477.09;;;21.75;nan
79372;BME280;68914;51.262;6.802;2023-07-29T04:52:07;100471.59;;;21.90;nan
79372;BME280;68914;51.262;6.802;2023-07-29T04:53:08;100477.88;;;22.09;nan
79372;BME280;68914;51.262;6.802;2023-07-29T04:54:08;100472.44;;;22.20;nan
79372;BME280;68914;51.262;6.802;2023-07-29T04:55:09;100466.41;;;21.99;nan
79372;BME280;68914;51.262;6.802;2023-07-29T04:56:10;100466.25;;;21.85;nan
79372;BME280;68914;51.262;6.802;2023-07-29T04:57:10;100464.25;;;21.67;nan
79372;BME280;68914;51.262;6.802;2023-07-29T04:58:11;100452.09;;;21.79;nan
79372;BME280;68914;51.262;6.802;2023-07-29T04:59:12;100463.34;;;22.10;nan
79372;BME280;68914;51.262;6.802;2023-07-29T05:00:13;100456.31;;;21.85;nan
79372;BME280;68914;51.262;6.802;2023-07-29T05:01:14;100454.47;;;21.81;nan
79372;BME280;68914;51.262;6.802;2023-07-29T05:02:14;100452.88;;;22.09;nan
79372;BME280;68914;51.262;6.802;2023-07-29T05:03:15;100450.88;;;22.25;nan
79372;BME280;68914;51.262;6.802;2023-07-29T05:04:16;100442.19;;;22.33;nan
79372;BME280;68914;51.262;6.802;2023-07-29T05:05:17;100433.34;;;22.56;nan
79372;BME280;68914;51.262;6.802;2023-07-29T05:06:18;100439.19;;;22.64;nan
79372;BME280;68914;51.262;6.802;2023-07-29T05:07:19;100434.28;;;22.47;nan
79372;BME280;68914;51.262;6.802;2023-07-29T05:08:19;100441.59;;;22.41;nan
79372;BME280;68914;51.262;6.802;2023-07-29T05:09:20;100435.22;;;22.80;nan
79372;BME280;68914;51.262;6.802;2023-07-29T05:10:22;100436.06;;;22.99;nan
79372;BME280;68914;51.262;6.802;2023-07-29T05:11:23;100434.84;;;23.11;nan
79372;BME280;68914;51.262;6.802;2023-07-29T05:12:25;100431.44;;;23.05;nan
79372;BME280;68914;51.262;6.802;2023-07-29T05:13:26;100437.47;;;22.73;nan
79372;BME280;68914;51.262;6.802;2023-07-29T05:14:27;100429.41;;;22.73;nan
79372;BME280;68914;51.262;6.802;2023-07-29T05:15:27;100435.75;;;22.82;nan
79372;BME280;68914;51.262;6.802;2023-07-29T05:16:28;100432.94;;;22.44;nan
79372;BME280;68914;51.262;6.802;2023-07-29T05:17:28;100435.38;;;22.46;nan
79372;BME280;68914;51.262;6.802;2023-07-29T05:18:29;100440.78;;;22.65;nan
79372;BME280;68914;51.262;6.802;2023-07-29T05:19:30;100435.53;;;22.54;nan
79372;BME280;68914;51.262;6.802;2023-07-29T05:20:30;100438.84;;;22.46;nan
79372;BME280;68914;51.262;6.802;2023-07-29T05:21:31;100449.53;;;22.27;nan
79372;BME280;68914;51.262;6.802;2023-07-29T05:22:32;100437.69;;;22.52;nan
79372;BME280;68914;51.262;6.802;2023-07-29T05:23:32;100460.63;;;22.69;nan
79372;BME280;68914;51.262;6.802;2023-07-29T05:24:33;100459.66;;;22.59;nan
79372;BME280;68914;51.262;6.802;2023-07-29T05:25:34;100457.50;;;22.62;nan
79372;BME280;68914;51.262;6.802;2023-07-29T05:26:37;100458.16;;;22.48;nan
79372;BME280;68914;51.262;6.802;2023-07-29T05:27:37;100463.53;;;22.48;nan
79372;BME280;68914;51.262;6.802;2023-07-29T05:28:38;100469.38;;;22.55;nan
79372;BME280;68914;51.262;6.802;2023-07-29T05:29:39;100474.31;;;22.19;nan
79372;BME280;68914;51.262;6.802;2023-07-29T05:30:39;100473.47;;;22.24;nan
79372;BME280;68914;51.262;6.802;2023-07-29T05:31:41;100480.34;;;22.35;nan
79372;BME280;68914;51.262;6.802;2023-07-29T05:32:42;100479.53;;;22.00;nan
79372;BME280;68914;51.262;6.802;2023-07-29T05:33:42;100478.25;;;21.98;nan
79372;BME280;68914;51.262;6.802;2023-07-29T05:34:43;100491.88;;;22.01;nan
79372;BME280;68914;51.262;6.802;2023-07-29T05:35:44;100487.59;;;22.00;nan
79372;BME280;68914;51.262;6.802;2023-07-29T05:36:45;100497.75;;;21.74;nan